»·PEaware :: N434EP NONE-KIFP

N434EP :: NONE-KIFP

FLIGHT INFORMATION

Flight Status: Arrived
Operator: Privately registered:
United States
More flights under this callsign
Pilot: Drew H. (3199)
Aircraft: Unknown
(PIPA)
More flights by this aircraft type
Origin: NONE
Destination: KIFP Laughlin/Bullhead Intl
United States
More flights between these airports :: More routes between these airports
Route: +
File this flight plan on PilotEdge
Remarks:
Altitude:
(Current/Filed)
0ft
Speed:
(Current/Filed)
0kts
Departed: 29-Jun-18 02:08 PM
Arrived: 29-Jun-18 02:58 PM
Distance/Time
Traveled:
Not Available
Distance/Time
To Go:
Arrived

Flight Plot

Page will automatically refresh every two minutes.

Flight plan parsing failed; only flown route is shown


Map Options




Map Legend


Flown Route
Filed Route
Departure Airport
Arrival Airport
Navaid (VOR, NDB)
Fix

Horizontal Profiles

Position Reports

Time Latitude Longitude Heading Altitude Ground
Speed
29-Jun-18 14:07 35.543995 -117.538281 29 11496ft 195kts
29-Jun-18 14:08 35.591399 -117.506848 28 11463ft 196kts
29-Jun-18 14:09 35.636691 -117.472543 74 11416ft 191kts
29-Jun-18 14:10 35.625118 -117.412022 127 11347ft 187kts
29-Jun-18 14:11 35.603443 -117.355949 101 11411ft 184kts
29-Jun-18 14:12 35.594994 -117.295509 101 11418ft 189kts
29-Jun-18 14:13 35.585743 -117.231200 101 11426ft 192kts
29-Jun-18 14:14 35.576230 -117.166529 101 11435ft 193kts
29-Jun-18 14:15 35.566558 -117.101637 101 11445ft 193kts
29-Jun-18 14:16 35.556800 -117.036855 101 11450ft 191kts
29-Jun-18 14:17 35.547105 -116.972978 100 11454ft 189kts
29-Jun-18 14:18 35.537426 -116.909546 99 11456ft 188kts
29-Jun-18 14:19 35.527831 -116.846632 98 11481ft 187kts
29-Jun-18 14:20 35.518221 -116.783593 98 11481ft 188kts
29-Jun-18 14:21 35.508541 -116.720615 98 11481ft 188kts
29-Jun-18 14:22 35.498779 -116.657367 98 11481ft 188kts
29-Jun-18 14:23 35.489038 -116.594506 98 11480ft 188kts
29-Jun-18 14:24 35.479247 -116.531566 98 11480ft 188kts
29-Jun-18 14:25 35.469399 -116.468479 98 11480ft 188kts
29-Jun-18 14:26 35.459501 -116.405301 98 11480ft 188kts
29-Jun-18 14:27 35.449741 -116.343294 99 11614ft 180kts
29-Jun-18 14:28 35.440076 -116.281978 99 11574ft 188kts
29-Jun-18 14:29 35.430065 -116.218753 99 11573ft 188kts
29-Jun-18 14:30 35.420029 -116.155591 99 11573ft 188kts
29-Jun-18 14:31 35.409983 -116.092586 99 11573ft 188kts
29-Jun-18 14:32 35.399891 -116.029521 99 11573ft 188kts
29-Jun-18 14:33 35.389790 -115.966607 99 11573ft 188kts
29-Jun-18 14:34 35.379614 -115.903462 99 11572ft 188kts
29-Jun-18 14:35 35.369424 -115.840424 99 11567ft 188kts
29-Jun-18 14:36 35.359220 -115.777560 99 11562ft 188kts
29-Jun-18 14:37 35.348912 -115.714221 99 11558ft 192kts
29-Jun-18 14:38 35.338353 -115.649596 99 11554ft 194kts
29-Jun-18 14:39 35.327698 -115.584626 99 11554ft 194kts
29-Jun-18 14:40 35.317731 -115.524055 99 11554ft 194kts
29-Jun-18 14:41 35.306976 -115.458903 99 11554ft 194kts
29-Jun-18 14:42 35.296205 -115.393891 99 11549ft 195kts
29-Jun-18 14:43 35.285533 -115.329701 99 11541ft 195kts
29-Jun-18 14:44 35.274700 -115.264765 99 11529ft 195kts
29-Jun-18 14:45 35.263769 -115.199469 99 11513ft 195kts
29-Jun-18 14:46 35.252949 -115.134609 101 11501ft 194kts
29-Jun-18 14:47 35.246819 -115.069408 91 11435ft 192kts
29-Jun-18 14:48 35.248473 -115.003020 91 10594ft 199kts
29-Jun-18 14:49 35.250591 -114.934641 91 9519ft 202kts
29-Jun-18 14:50 35.252663 -114.866762 91 8268ft 199kts
29-Jun-18 14:52 35.254657 -114.801849 91 6987ft 197kts
29-Jun-18 14:53 35.255890 -114.737568 94 6250ft 170kts
29-Jun-18 14:54 35.254096 -114.678081 97 5131ft 190kts
29-Jun-18 14:55 35.254074 -114.613840 87 4318ft 177kts
29-Jun-18 14:56 35.237627 -114.565063 174 2730ft 138kts
29-Jun-18 14:56 35.208370 -114.563588 184 1857ft 120kts
29-Jun-18 14:58 35.173192 -114.560672 183 858ft 91kts
29-Jun-18 14:59 35.158194 -114.559641 177 704ft 35kts
29-Jun-18 15:00 35.155908 -114.558409 85 704ft 4kts
29-Jun-18 15:01 35.157650 -114.555894 356 704ft 18kts
29-Jun-18 15:01 35.158657 -114.556241 263 704ft 0kts
29-Jun-18 15:02 35.158657 -114.556241 263 704ft 0kts
29-Jun-18 15:03 35.158657 -114.556241 263 704ft 0kts
29-Jun-18 15:04 35.158657 -114.556241 263 704ft 0kts
29-Jun-18 15:05 35.158657 -114.556241 263 704ft 0kts
29-Jun-18 15:07 35.158657 -114.556241 263 704ft 0kts
29-Jun-18 15:07 35.158657 -114.556241 263 704ft 0kts
29-Jun-18 15:08 35.158657 -114.556241 263 704ft 0kts

Navigation Log

Ident Type
Flight plan parsing failed, navigation log unavailable